Monday, December 16, 2019, 8:03 AM EST
Back to Local

KERI, Erie International Airport

Location: Erie, PA, United States Lat: 42.083
Local Time: 8:03 AM EST (13:03 GMT) Lon: -80.183
Time Zone: US/Eastern Elev: 731 ft

Show me the last for .
Show Decoded

2019-12-16 07:51 METAR KERI 161251Z 16004KT 10SM OVC065 M01/M06 A3017 RMK AO2 SLP226 T10111061 =
2019-12-16 06:51 METAR KERI 161151Z 16006KT 10SM OVC075 M01/M06 A3017 RMK AO2 SLP225 T10111061
                 11006 21017 53006 =
2019-12-16 05:51 METAR KERI 161051Z 15004KT 10SM OVC085 M01/M06 A3015 RMK AO2 SLP217 T10111061 =
2019-12-16 04:51 METAR KERI 160951Z AUTO 17004KT 10SM OVC100 M01/M07 A3014 RMK AO2 SLP216
                 T10111067 =
2019-12-16 03:51 METAR KERI 160851Z AUTO 19004KT 10SM OVC100 M01/M07 A3015 RMK AO2 SLP218
                 T10111067 53001 =
2019-12-16 02:51 METAR KERI 160751Z AUTO 19005KT 10SM OVC110 M01/M07 A3016 RMK AO2 SLP220
                 T10111067 =
2019-12-16 01:51 METAR KERI 160651Z AUTO 19005KT 10SM FEW040 M01/M07 A3013 RMK AO2 SLP213
                 T10111067 =
2019-12-16 00:51 METAR KERI 160551Z AUTO 19008KT 10SM OVC037 M01/M07 A3015 RMK AO2 SLP217 60000
                 T10061067 10006 21006 52002 =
2019-12-15 23:51 METAR KERI 160451Z AUTO 20007KT 10SM OVC033 M01/M07 A3015 RMK AO2 SLP218
                 T10061067 400331006 =
2019-12-15 22:51 METAR KERI 160351Z 21007KT 10SM OVC030 M01/M07 A3014 RMK AO2 SLP214 T10061067 =
2019-12-15 21:51 METAR KERI 160251Z 20006KT 10SM OVC032 00/M06 A3014 RMK AO2 SLP215 60000
                 T00001056 50006 =
2019-12-15 21:12 METAR KERI 160212Z 21007KT 10SM OVC034 00/M05 A3016 RMK AO2 T00001050 =
2019-12-15 20:51 METAR KERI 160151Z 21007KT 9SM BKN027 OVC038 M01/M05 A3015 RMK AO2 SNE47 SLP219
                 P0000 T10061050 =
2019-12-15 19:51 METAR KERI 160051Z 22006KT 9SM -SN FEW014 BKN025 OVC029 00/M04 A3016 RMK AO2
                 SNB43 SLP220 P0000 T00001039 =
2019-12-15 19:01 METAR KERI 160001Z 27005KT 10SM SCT021 BKN028 OVC048 01/M04 A3013 RMK AO2
                 T00061044 =
2019-12-15 18:51 METAR KERI 152351Z 31007KT 10SM SCT026 BKN036 OVC048 01/M04 A3013 RMK AO2 SLP209
                 60000 T00061044 10017 20000 51014 =
2019-12-15 18:42 METAR KERI 152342Z 31006KT 10SM FEW026 BKN036 OVC048 01/M04 A3012 RMK AO2
                 T00061044 =
2019-12-15 18:23 METAR KERI 152323Z 27008G16KT 10SM BKN029 OVC037 01/M05 A3013 RMK AO2 T00061050
                 =
2019-12-15 17:51 METAR KERI 152251Z 25005KT 10SM FEW019 OVC055 00/M04 A3012 RMK AO2 SNB39E40
                 SLP207 P0000 T00001039 =
2019-12-15 16:51 METAR KERI 152151Z 29007KT 9SM SCT023 BKN031 OVC050 01/M04 A3010 RMK AO2
                 SNB2053E50 SLP199 P0000 T00061044 =
2019-12-15 15:51 METAR KERI 152051Z 28011G16KT 8SM BKN021 OVC027 01/M04 A3008 RMK AO2 SNE50
                 SLP194 P0000 60000 T00061039 53019 =
2019-12-15 14:51 METAR KERI 151951Z 30010G21KT 4SM -SN FEW018 BKN023 OVC030 01/M03 A3005 RMK AO2
                 SNE1855B09E28B48 SLP181 P0000 T00061033 =
2019-12-15 13:59 METAR KERI 151859Z 27010KT 9SM SCT011 BKN020 OVC060 01/M03 A3002 RMK AO2 SNE55
                 P0000 T00061028 =
2019-12-15 13:51 METAR KERI 151851Z 30011G18KT 5SM -SN BKN011 BKN020 OVC033 00/M03 A3002 RMK AO2
                 SNB1755 SLP173 P0000 T00001028 =
2019-12-15 13:48 METAR KERI 151848Z 29011KT 3SM -SN SCT009 BKN013 OVC033 00/M03 A3002 RMK AO2
                 SNB1755 P0000 =
2019-12-15 13:47 METAR KERI 151847Z 29012KT 3SM -SN BKN011 BKN020 OVC026 00/M03 A3002 RMK AO2
                 SNB1755 P0000 =
2019-12-15 13:07 METAR KERI 151807Z 27007KT 3SM R06/5000VP6000FT -SN SCT014 BKN023 OVC065 01/M03
                 A3000 RMK AO2 SNB1755 P0000 T00061028 =
2019-12-15 12:57 METAR KERI 151757Z 27010G19KT 1 3/4SM R06/5500VP6000FT -SN FEW011 BKN027 OVC065
                 01/M03 A3000 RMK AO2 SNB55 P0000 T00061033 =
2019-12-15 12:51 METAR KERI 151751Z 28013G19KT 10SM FEW021 BKN050 OVC065 02/M06 A2999 RMK AO2 PK
                 WND 28026/1655 SNB03E28 SLP162 P0000 60000 T00171056 10028 20006 51021 =
2019-12-15 11:51 METAR KERI 151651Z 28015G21KT 10SM FEW034 OVC065 02/M06 A2997 RMK AO2 SLP155
                 T00221056 =
2019-12-15 10:51 METAR KERI 151551Z 29013G24KT 10SM FEW030 OVC065 02/M05 A2995 RMK AO2 PK WND
                 27027/1509 SNE04 SLP150 P0000 T00171050 =
2019-12-15 10:16 METAR KERI 151516Z 27014G27KT 10SM FEW017 BKN038 OVC065 02/M04 A2994 RMK AO2 PK
                 WND 27027/1509 SNE04 P0000 T00171039 =
2019-12-15 10:09 METAR KERI 151509Z 27019G27KT 9SM FEW019 BKN025 OVC065 02/M04 A2994 RMK AO2 PK
                 WND 27027/1509 SNE04 P0000 T00171039 =
2019-12-15 09:51 METAR KERI 151451Z 26016G29KT 5SM -SN SCT019 BKN030 OVC060 01/M03 A2993 RMK AO2
                 PK WND 27029/1443 SLP141 P0000 60000 T00111033 53035 =
2019-12-15 09:28 METAR KERI 151428Z 26013G23KT 8SM -SN FEW019 BKN037 OVC050 01/M03 A2991 RMK AO2
                 P0000 T00111033 =
2019-12-15 09:10 METAR KERI 151410Z 27016G25KT 3SM -SN SCT019 OVC028 01/M03 A2991 RMK AO2 P0000
                 T00111028 =
2019-12-15 09:01 METAR KERI 151401Z 27017G25KT 2 1/2SM -SN SCT021 OVC028 01/M03 A2990 RMK AO2
                 P0000 T00111028 =
2019-12-15 08:51 METAR KERI 151351Z 27014G21KT 4SM -SN SCT019 OVC026 01/M03 A2989 RMK AO2 PK WND
                 27026/1258 SNB1257E31B47 SLP129 P0000 T00111033 =

Support USWX by starting your Amazon purchase here.